Time;durP1;ratioP1;P1;durP2;ratioP2;P2;SDS_P1;SDS_P2;PMS_P1;PMS_P2;Temp;Humidity;BMP_temperature;BMP_pressure;BME280_temperature;BME280_humidity;BME280_pressure;Samples;Min_cycle;Max_cycle;Signal;HPM_P1;HPM_P2
2023/03/24 00:01:59;;;;;;;36.17;23.02;;;;;;;8.38;79.91;95142.34;5012302;28;20214;-74
2023/03/24 00:04:26;;;;;;;32.55;19.25;;;;;;;8.37;79.46;95144.91;5013110;28;20696;-73
2023/03/24 00:06:54;;;;;;;24.73;16.38;;;;;;;8.30;79.24;95135.75;5013486;28;20640;-73
2023/03/24 00:09:20;;;;;;;24.13;15.95;;;;;;;8.32;79.30;95139.09;5013350;28;20358;-75
2023/03/24 00:11:48;;;;;;;22.65;14.38;;;;;;;8.33;79.05;95145.84;5010418;28;20199;-74
2023/03/24 00:14:15;;;;;;;21.75;15.10;;;;;;;8.28;78.70;95150.16;5011430;28;20219;-72
2023/03/24 00:16:44;;;;;;;21.38;15.35;;;;;;;8.13;79.85;95154.72;5010852;28;20204;-75
2023/03/24 00:19:12;;;;;;;21.23;15.68;;;;;;;8.14;79.68;95143.72;5012261;28;20250;-74
2023/03/24 00:21:40;;;;;;;31.77;18.60;;;;;;;8.12;79.46;95152.22;5010155;28;20223;-74
2023/03/24 00:24:08;;;;;;;26.70;18.00;;;;;;;8.06;78.49;95148.13;5011146;28;20218;-76
2023/03/24 00:26:36;;;;;;;34.00;17.00;;;;;;;7.94;78.79;95134.88;5010979;28;20230;-73
2023/03/24 00:29:04;;;;;;;23.17;16.05;;;;;;;7.99;79.34;95149.09;5009615;28;20303;-77
2023/03/24 00:31:31;;;;;;;22.63;16.27;;;;;;;7.91;79.78;95137.50;5010667;28;20242;-74
2023/03/24 00:34:01;;;;;;;21.50;15.43;;;;;;;7.96;79.80;95144.09;5009039;28;20207;-73
2023/03/24 00:36:28;;;;;;;20.23;15.32;;;;;;;7.92;80.32;95150.09;5011737;28;20264;-73
2023/03/24 00:38:56;;;;;;;28.13;15.80;;;;;;;7.89;79.95;95145.13;5008046;28;20243;-74
2023/03/24 00:41:25;;;;;;;20.80;15.10;;;;;;;7.97;79.41;95139.88;5010596;28;20204;-74
2023/03/24 00:43:55;;;;;;;23.70;15.85;;;;;;;7.97;80.27;95135.66;5011109;28;20298;-72
2023/03/24 00:46:28;;;;;;;24.38;15.23;;;;;;;7.93;80.28;95139.13;5010836;28;20336;-73
2023/03/24 00:49:00;;;;;;;22.05;14.40;;;;;;;7.88;80.03;95140.94;5011013;28;20228;-73
2023/03/24 00:51:30;;;;;;;23.38;15.13;;;;;;;7.80;80.78;95142.78;5011553;28;20204;-73
2023/03/24 00:53:58;;;;;;;25.38;14.95;;;;;;;7.85;80.16;95146.06;5009962;28;20273;-74
2023/03/24 00:56:27;;;;;;;21.17;16.58;;;;;;;7.79;80.61;95148.72;5007625;28;20729;-74
2023/03/24 00:58:56;;;;;;;25.35;15.40;;;;;;;7.78;80.32;95139.47;5009052;28;20239;-73
2023/03/24 01:01:25;;;;;;;23.25;15.48;;;;;;;7.68;80.76;95138.81;5010228;28;20239;-72
2023/03/24 01:03:51;;;;;;;19.30;14.80;;;;;;;7.66;80.81;95139.75;5010071;28;20301;-72
2023/03/24 01:06:21;;;;;;;25.15;16.55;;;;;;;7.65;80.31;95138.06;5009916;28;20212;-73
2023/03/24 01:08:52;;;;;;;22.35;15.23;;;;;;;7.62;80.53;95135.59;5007773;28;20720;-74
2023/03/24 01:11:23;;;;;;;22.33;14.25;;;;;;;7.69;79.89;95142.19;5010731;28;20218;-74
2023/03/24 01:13:50;;;;;;;21.90;15.32;;;;;;;7.61;80.18;95142.34;5007700;28;20874;-76
2023/03/24 01:16:17;;;;;;;22.75;15.05;;;;;;;7.61;80.29;95146.59;5010186;28;20239;-74
2023/03/24 01:18:44;;;;;;;26.10;15.10;;;;;;;7.49;80.40;95143.44;5007444;28;20208;-73
2023/03/24 01:21:13;;;;;;;23.95;14.88;;;;;;;7.45;80.91;95131.69;5008300;28;20208;-72
2023/03/24 01:23:41;;;;;;;26.95;16.13;;;;;;;7.32;80.79;95120.19;5009024;28;20204;-74
2023/03/24 01:26:11;;;;;;;26.25;15.30;;;;;;;7.30;81.30;95126.97;5009258;28;20330;-72
2023/03/24 01:28:39;;;;;;;21.77;15.07;;;;;;;7.29;81.10;95124.47;5006551;28;20312;-74
2023/03/24 01:31:08;;;;;;;21.77;15.30;;;;;;;7.18;81.48;95112.03;5007323;28;20214;-72
2023/03/24 01:33:36;;;;;;;19.80;14.70;;;;;;;7.24;81.22;95122.03;5009391;28;20210;-70
2023/03/24 01:36:03;;;;;;;21.45;15.45;;;;;;;7.18;80.79;95124.66;5007158;28;20324;-72
2023/03/24 01:38:30;;;;;;;23.02;14.60;;;;;;;7.13;81.46;95122.25;5009804;28;20832;-74
2023/03/24 01:40:57;;;;;;;24.70;16.75;;;;;;;7.16;81.34;95123.91;5007924;28;20283;-72
2023/03/24 01:43:29;;;;;;;26.55;16.08;;;;;;;7.14;80.86;95126.44;5008688;28;20309;-74
2023/03/24 01:46:16;;;;;;;22.92;16.13;;;;;;;7.19;81.58;95123.81;5007966;28;20212;-73
2023/03/24 01:48:48;;;;;;;23.42;15.65;;;;;;;7.20;81.26;95128.00;5007677;28;20653;-72
2023/03/24 01:51:19;;;;;;;25.48;16.10;;;;;;;7.24;80.42;95124.56;5009311;28;20260;-72
2023/03/24 01:53:51;;;;;;;24.85;14.93;;;;;;;7.17;80.56;95133.13;5008285;28;20381;-72
2023/03/24 01:56:19;;;;;;;22.35;15.57;;;;;;;7.17;80.90;95135.66;5009563;28;20200;-72
2023/03/24 01:58:51;;;;;;;29.23;16.00;;;;;;;7.13;80.92;95129.00;5009441;28;20218;-73
2023/03/24 02:01:20;;;;;;;23.75;16.27;;;;;;;6.96;81.66;95118.34;5009973;28;20200;-75
2023/03/24 02:03:47;;;;;;;29.25;15.90;;;;;;;7.02;81.52;95129.19;5008901;28;20740;-74
2023/03/24 02:06:17;;;;;;;25.55;15.73;;;;;;;6.92;82.17;95129.41;5007923;28;20325;-76
2023/03/24 02:08:51;;;;;;;26.75;15.25;;;;;;;6.98;81.91;95136.84;5008341;28;20230;-75
2023/03/24 02:11:19;;;;;;;25.15;16.05;;;;;;;6.97;81.11;95136.03;5007951;28;20211;-69
2023/03/24 02:13:47;;;;;;;21.02;16.48;;;;;;;6.95;81.63;95134.38;5007774;28;20204;-73
2023/03/24 02:16:27;;;;;;;23.90;16.05;;;;;;;6.99;80.88;95139.34;5006771;28;21766;-73
2023/03/24 02:19:11;;;;;;;22.27;16.00;;;;;;;6.97;81.53;95133.50;5007919;28;20276;-76
2023/03/24 02:22:12;;;;;;;25.48;17.38;;;;;;;6.93;81.47;95136.13;5009255;28;20212;-74
2023/03/24 02:25:05;;;;;;;22.83;16.25;;;;;;;6.96;80.93;95136.88;5007390;28;20213;-74
2023/03/24 02:27:48;;;;;;;22.27;15.13;;;;;;;6.95;80.74;95136.91;5000152;28;20984;-75
2023/03/24 02:30:32;;;;;;;26.65;14.55;;;;;;;6.92;81.23;95134.47;5009448;28;20712;-74
2023/03/24 02:33:24;;;;;;;19.67;15.32;;;;;;;6.88;81.82;95130.31;5007831;28;20211;-73
2023/03/24 02:36:20;;;;;;;20.38;14.18;;;;;;;6.93;81.54;95136.13;5008829;28;20626;-76
2023/03/24 02:39:26;;;;;;;21.33;15.50;;;;;;;6.91;81.75;95127.75;5010710;28;20740;-74
2023/03/24 02:42:02;;;;;;;21.40;14.15;;;;;;;6.94;81.09;95125.13;5014104;28;20261;-73
2023/03/24 02:44:35;;;;;;;24.15;15.50;;;;;;;6.95;81.45;95124.28;5014246;28;20203;-73
2023/03/24 02:47:08;;;;;;;24.60;16.45;;;;;;;7.01;81.65;95103.94;5012222;28;20297;-75
2023/03/24 02:49:44;;;;;;;25.05;15.50;;;;;;;7.03;81.79;95107.28;5012139;28;20228;-74
2023/03/24 02:52:18;;;;;;;24.30;16.65;;;;;;;7.02;82.14;95106.44;5012763;28;20212;-73
2023/03/24 02:54:50;;;;;;;20.80;15.52;;;;;;;7.12;81.51;95102.06;5012836;28;20212;-73
2023/03/24 02:57:22;;;;;;;27.67;18.52;;;;;;;7.13;81.99;95103.72;5013455;28;20211;-74
2023/03/24 02:59:56;;;;;;;25.90;18.25;;;;;;;7.20;81.81;95101.91;5012248;28;20212;-74
2023/03/24 03:02:27;;;;;;;25.83;17.30;;;;;;;7.24;82.11;95101.81;5011286;28;20211;-74
2023/03/24 03:04:59;;;;;;;24.95;16.27;;;;;;;7.28;81.99;95097.53;5012907;28;20305;-76
2023/03/24 03:07:32;;;;;;;27.15;18.45;;;;;;;7.25;81.63;95095.88;5010708;28;20203;-75
2023/03/24 03:10:07;;;;;;;28.20;19.05;;;;;;;7.30;82.43;95104.22;5010472;28;20234;-73
2023/03/24 03:12:38;;;;;;;30.88;19.00;;;;;;;7.41;81.57;95102.31;5010919;28;20204;-74
2023/03/24 03:15:09;;;;;;;31.95;19.35;;;;;;;7.37;81.95;95098.19;5010289;28;20258;-75
2023/03/24 03:17:41;;;;;;;29.98;18.95;;;;;;;7.42;81.90;95095.56;5007624;28;20692;-74
2023/03/24 03:20:13;;;;;;;23.83;17.52;;;;;;;7.50;80.83;95094.53;5010935;28;21531;-72
2023/03/24 03:22:45;;;;;;;30.77;19.30;;;;;;;7.43;81.02;95082.84;5011581;28;20214;-74
2023/03/24 03:25:19;;;;;;;29.98;18.25;;;;;;;7.49;80.90;95105.50;5012609;28;20313;-77
2023/03/24 03:27:46;;;;;;;25.63;17.52;;;;;;;7.51;80.96;95106.31;5010246;28;20227;-74
2023/03/24 03:30:18;;;;;;;29.77;19.77;;;;;;;7.50;80.93;95103.81;5013001;28;20713;-73
2023/03/24 03:32:53;;;;;;;36.00;19.73;;;;;;;7.47;80.85;95089.53;5012456;28;20692;-75
2023/03/24 03:35:24;;;;;;;23.83;17.77;;;;;;;7.48;81.00;95095.41;5013135;28;20289;-74
2023/03/24 03:37:57;;;;;;;31.67;20.15;;;;;;;7.49;80.94;95092.84;5010975;28;20207;-74
2023/03/24 03:40:32;;;;;;;29.00;17.88;;;;;;;7.46;81.15;95092.91;5010926;28;20265;-73
2023/03/24 03:42:59;;;;;;;30.65;19.38;;;;;;;7.38;81.42;95092.25;5012015;28;20207;-75
2023/03/24 03:45:25;;;;;;;30.20;19.90;;;;;;;7.38;80.63;95094.78;5011289;28;20374;-74
2023/03/24 03:47:52;;;;;;;35.55;18.95;;;;;;;7.40;81.42;95100.66;5009126;28;20236;-74
2023/03/24 03:50:20;;;;;;;29.65;18.65;;;;;;;7.35;81.72;95099.91;5009980;28;20255;-73
2023/03/24 03:52:47;;;;;;;31.75;19.15;;;;;;;7.31;81.07;95108.41;5013043;28;20220;-74
2023/03/24 03:55:15;;;;;;;30.48;18.52;;;;;;;7.26;81.45;95105.13;5012242;28;20204;-72
2023/03/24 03:57:44;;;;;;;28.10;17.92;;;;;;;7.27;81.19;95106.81;5011500;28;20721;-74
2023/03/24 04:00:15;;;;;;;26.58;18.85;;;;;;;7.14;81.82;95110.44;5011895;28;20203;-72
2023/03/24 04:02:56;;;;;;;26.88;18.58;;;;;;;7.05;82.28;95106.41;5011882;28;20204;-74
2023/03/24 04:05:35;;;;;;;24.25;17.75;;;;;;;7.12;82.08;95099.53;5011643;28;20207;-74
2023/03/24 04:08:16;;;;;;;29.40;20.17;;;;;;;7.18;82.05;95105.28;5012048;28;20204;-74
2023/03/24 04:11:13;;;;;;;37.63;21.27;;;;;;;7.13;81.91;95109.63;5011809;28;20313;-74
2023/03/24 04:13:50;;;;;;;30.90;20.30;;;;;;;7.15;81.64;95107.06;5012261;28;20277;-74
2023/03/24 04:16:27;;;;;;;33.90;21.77;;;;;;;7.11;82.48;95113.88;5012363;28;20641;-73
2023/03/24 04:19:05;;;;;;;32.22;20.95;;;;;;;7.06;81.78;95119.88;5012437;28;20281;-74
2023/03/24 04:21:47;;;;;;;34.70;21.45;;;;;;;7.04;81.39;95114.00;5010943;28;20621;-74
2023/03/24 04:24:26;;;;;;;37.42;21.65;;;;;;;6.99;82.71;95116.63;5010651;28;20211;-73
2023/03/24 04:26:59;;;;;;;35.63;20.75;;;;;;;6.90;81.82;95118.50;5011333;28;20227;-74
2023/03/24 04:29:41;;;;;;;27.65;18.48;;;;;;;6.94;82.76;95112.50;5011766;28;21004;-76
2023/03/24 04:32:13;;;;;;;34.08;21.38;;;;;;;6.98;82.23;95114.13;5012333;28;20204;-71
2023/03/24 04:34:45;;;;;;;32.35;19.88;;;;;;;6.97;82.01;95114.97;5012095;28;20215;-74
2023/03/24 04:37:16;;;;;;;28.58;20.98;;;;;;;7.07;81.81;95117.31;5012246;28;20211;-73
2023/03/24 04:39:46;;;;;;;29.17;19.67;;;;;;;7.12;82.35;95118.06;5011776;28;20282;-73
2023/03/24 04:42:18;;;;;;;29.30;20.38;;;;;;;7.16;82.20;95129.78;5010040;28;20285;-74
2023/03/24 04:44:50;;;;;;;35.90;19.90;;;;;;;7.29;82.35;95127.81;5011684;28;21395;-73
2023/03/24 04:47:20;;;;;;;36.03;20.50;;;;;;;7.40;81.83;95130.16;5011737;28;20215;-74
2023/03/24 04:49:46;;;;;;;28.67;19.70;;;;;;;7.55;81.18;95137.41;5011226;28;20358;-73
2023/03/24 04:52:13;;;;;;;35.03;19.90;;;;;;;7.64;80.24;95136.41;5010774;28;20296;-74
2023/03/24 04:54:40;;;;;;;28.23;18.60;;;;;;;7.88;79.77;95146.00;5011691;28;20289;-73
2023/03/24 04:57:07;;;;;;;31.30;19.08;;;;;;;8.01;79.19;95136.41;5010657;28;20291;-73
2023/03/24 04:59:33;;;;;;;35.22;19.55;;;;;;;8.61;77.47;95144.31;5011583;28;20224;-73
2023/03/24 05:02:02;;;;;;;27.60;18.30;;;;;;;9.59;74.77;95136.66;5009904;28;20767;-74
2023/03/24 05:04:30;;;;;;;32.78;18.27;;;;;;;10.55;71.31;95147.28;5010847;28;20236;-74
2023/03/24 05:06:56;;;;;;;28.67;17.80;;;;;;;11.53;67.75;95144.78;5010264;28;20673;-74
2023/03/24 05:09:24;;;;;;;35.53;18.08;;;;;;;12.79;63.09;95137.38;5012120;28;21439;-75
2023/03/24 05:11:52;;;;;;;28.02;18.77;;;;;;;14.22;59.23;95143.88;5010634;28;20290;-73
2023/03/24 05:14:19;;;;;;;33.50;20.02;;;;;;;15.73;54.36;95138.19;5011858;28;20289;-73
2023/03/24 05:16:45;;;;;;;29.67;17.73;;;;;;;17.11;49.67;95125.38;5010938;28;20240;-74
2023/03/24 05:19:14;;;;;;;29.60;18.35;;;;;;;18.20;46.57;95127.41;5010868;28;20211;-73
2023/03/24 05:21:40;;;;;;;32.55;19.13;;;;;;;19.22;43.91;95136.28;5009720;28;20270;-73
2023/03/24 05:24:07;;;;;;;26.67;18.67;;;;;;;19.96;41.88;95140.72;5010642;28;20199;-77
2023/03/24 05:26:34;;;;;;;30.67;19.33;;;;;;;20.54;39.20;95142.63;5010031;28;20316;-74
2023/03/24 05:29:01;;;;;;;36.35;20.35;;;;;;;20.63;39.15;95141.16;5011358;28;20222;-74
2023/03/24 05:31:28;;;;;;;41.47;23.70;;;;;;;21.13;38.33;95134.88;5010187;28;20281;-74
2023/03/24 05:33:55;;;;;;;36.83;22.80;;;;;;;21.90;36.69;95135.16;5010018;28;20236;-75
2023/03/24 05:36:23;;;;;;;35.63;22.65;;;;;;;22.32;35.56;95137.00;5010241;28;20604;-75
2023/03/24 05:38:50;;;;;;;31.42;23.13;;;;;;;22.53;35.20;95136.25;5010147;28;20212;-75
2023/03/24 05:41:16;;;;;;;39.80;25.45;;;;;;;22.54;35.39;95135.31;5010507;28;20294;-76
2023/03/24 05:43:43;;;;;;;39.90;25.98;;;;;;;22.32;35.94;95134.41;5010137;28;20836;-74
2023/03/24 05:46:10;;;;;;;40.00;26.42;;;;;;;22.12;35.80;95139.50;5011365;28;20239;-75
2023/03/24 05:48:37;;;;;;;41.60;28.63;;;;;;;22.29;35.56;95139.81;5009437;28;20586;-72
2023/03/24 05:51:04;;;;;;;34.33;26.10;;;;;;;22.62;35.16;95127.75;5010476;28;20664;-75
2023/03/24 05:53:32;;;;;;;32.97;22.52;;;;;;;22.94;35.00;95127.78;5009705;28;20330;-76
2023/03/24 05:55:58;;;;;;;41.17;26.13;;;;;;;23.19;34.42;95139.56;5010797;28;20211;-75
2023/03/24 05:58:26;;;;;;;33.78;21.73;;;;;;;23.36;34.11;95139.81;5009192;28;20231;-75
2023/03/24 06:00:53;;;;;;;37.17;23.15;;;;;;;23.51;33.80;95129.94;5010599;28;20318;-80
2023/03/24 06:03:20;;;;;;;33.58;20.90;;;;;;;24.04;33.33;95135.81;5007093;28;20623;-78
2023/03/24 06:05:46;;;;;;;33.20;21.58;;;;;;;24.63;31.88;95126.44;5010622;28;20302;-75
2023/03/24 06:08:13;;;;;;;30.13;20.90;;;;;;;25.02;31.19;95129.88;5010059;28;20218;-75
2023/03/24 06:10:41;;;;;;;27.75;21.25;;;;;;;25.61;30.58;95129.66;5009422;28;20254;-76
2023/03/24 06:13:08;;;;;;;33.35;20.40;;;;;;;25.04;30.62;95131.38;5009698;28;20291;-75
2023/03/24 06:15:38;;;;;;;34.15;22.33;;;;;;;24.30;32.18;95120.63;5009330;28;20266;-76
2023/03/24 06:18:05;;;;;;;30.52;21.55;;;;;;;23.79;32.59;95135.44;5008589;28;20558;-77
2023/03/24 06:20:32;;;;;;;26.05;21.27;;;;;;;23.50;33.46;95136.09;5011127;28;20215;-74
2023/03/24 06:22:58;;;;;;;32.22;21.35;;;;;;;23.48;33.72;95138.00;5015903;28;20235;-75
2023/03/24 06:25:27;;;;;;;37.05;25.40;;;;;;;23.41;33.64;95147.22;5012796;28;20204;-76
2023/03/24 06:27:55;;;;;;;54.28;29.27;;;;;;;23.12;34.34;95141.00;5010208;28;20353;-76
2023/03/24 06:30:22;;;;;;;74.00;33.70;;;;;;;22.90;34.60;95131.56;5010802;28;20306;-78
2023/03/24 06:32:49;;;;;;;41.33;26.83;;;;;;;22.92;34.28;95140.88;5010886;28;20331;-76
2023/03/24 06:35:16;;;;;;;56.30;35.40;;;;;;;23.05;34.33;95127.72;5010925;28;20270;-76
2023/03/24 06:37:43;;;;;;;57.42;34.05;;;;;;;22.79;35.03;95149.75;5009625;28;20226;-74
2023/03/24 06:40:13;;;;;;;40.38;27.70;;;;;;;22.62;35.06;95144.13;5009940;28;20204;-76
2023/03/24 06:42:40;;;;;;;51.55;36.03;;;;;;;22.62;34.81;95144.13;5007700;28;20296;-74
2023/03/24 06:45:10;;;;;;;52.20;36.17;;;;;;;23.49;33.93;95144.81;5010861;28;20231;-75
2023/03/24 06:47:37;;;;;;;47.10;30.02;;;;;;;25.31;31.43;95145.47;5011755;28;20239;-74
2023/03/24 06:50:05;;;;;;;28.67;20.40;;;;;;;27.46;28.20;95141.53;5011467;28;20235;-77
2023/03/24 06:52:32;;;;;;;25.88;19.67;;;;;;;29.09;25.82;95136.03;5011107;28;20192;-76
2023/03/24 06:54:59;;;;;;;26.10;19.48;;;;;;;30.67;23.75;95130.19;5011439;28;21016;-77
2023/03/24 06:57:27;;;;;;;30.48;20.42;;;;;;;31.50;22.75;95132.03;5012805;28;20207;-75
2023/03/24 06:59:54;;;;;;;26.05;18.42;;;;;;;30.78;23.27;95127.13;5012055;28;20207;-72
2023/03/24 07:02:22;;;;;;;31.40;20.58;;;;;;;29.23;24.68;95138.97;5011282;28;20548;-75
2023/03/24 07:04:52;;;;;;;24.45;19.52;;;;;;;29.55;24.94;95139.00;5009912;28;20748;-75
2023/03/24 07:07:21;;;;;;;25.55;18.05;;;;;;;31.26;23.16;95140.94;5011665;28;20208;-75
2023/03/24 07:09:49;;;;;;;31.55;19.42;;;;;;;32.80;21.93;95139.34;5010126;28;20336;-74
2023/03/24 07:12:15;;;;;;;24.17;18.95;;;;;;;34.35;20.48;95143.72;5011280;28;20238;-74
2023/03/24 07:14:42;;;;;;;30.65;19.73;;;;;;;33.49;20.44;95134.34;5010807;28;20262;-77
2023/03/24 07:17:09;;;;;;;26.05;17.85;;;;;;;33.37;21.12;95143.78;5010923;28;20239;-76
2023/03/24 07:19:37;;;;;;;22.23;17.55;;;;;;;33.31;20.62;95144.53;5010480;28;20318;-74
2023/03/24 07:22:07;;;;;;;24.48;21.23;;;;;;;32.43;21.09;95135.84;5012302;28;20227;-75
2023/03/24 07:24:34;;;;;;;21.63;17.60;;;;;;;32.43;21.43;95141.09;5012727;28;20204;-75
2023/03/24 07:27:00;;;;;;;25.63;17.40;;;;;;;33.96;20.37;95138.16;5015090;28;20235;-75
2023/03/24 07:29:27;;;;;;;18.75;16.80;;;;;;;36.10;18.71;95139.13;5015309;28;20237;-75
2023/03/24 07:31:57;;;;;;;25.20;16.95;;;;;;;37.00;17.97;95134.75;5014439;28;20290;-77
2023/03/24 07:34:25;;;;;;;18.95;17.00;;;;;;;36.64;17.65;95142.44;5013540;28;20205;-76
2023/03/24 07:36:53;;;;;;;18.75;16.90;;;;;;;35.20;18.63;95136.25;5014131;28;20208;-76
2023/03/24 07:39:20;;;;;;;28.70;17.85;;;;;;;35.08;18.76;95139.50;5013711;28;20227;-74
2023/03/24 07:41:47;;;;;;;25.13;18.45;;;;;;;35.13;18.72;95129.16;5014160;28;20697;-74
2023/03/24 07:44:14;;;;;;;19.98;17.38;;;;;;;35.50;18.26;95136.72;5013423;28;20211;-74
2023/03/24 07:46:41;;;;;;;20.85;17.58;;;;;;;35.87;18.09;95137.97;5015358;28;20257;-75
2023/03/24 07:49:08;;;;;;;23.60;16.70;;;;;;;35.32;18.89;95137.34;5012391;28;20290;-76
2023/03/24 07:51:35;;;;;;;21.17;17.20;;;;;;;35.49;18.19;95124.53;5014722;28;20238;-74
2023/03/24 07:54:03;;;;;;;20.85;17.27;;;;;;;36.92;17.41;95131.53;5013237;28;20298;-73
2023/03/24 07:56:30;;;;;;;23.85;17.77;;;;;;;37.93;16.77;95120.81;5013935;28;20363;-74
2023/03/24 07:58:57;;;;;;;21.70;18.55;;;;;;;38.30;16.59;95119.84;5013163;28;20212;-76
2023/03/24 08:01:23;;;;;;;23.15;19.50;;;;;;;38.59;16.29;95123.63;5014315;28;20726;-74
2023/03/24 08:03:53;;;;;;;20.23;18.02;;;;;;;38.55;16.16;95117.09;5013461;28;20735;-74
2023/03/24 08:06:20;;;;;;;32.60;24.23;;;;;;;39.08;15.61;95114.59;5013586;28;20204;-75
2023/03/24 08:08:47;;;;;;;28.83;22.75;;;;;;;39.80;15.25;95109.16;5013855;28;20215;-73
2023/03/24 08:11:15;;;;;;;19.90;18.13;;;;;;;41.03;15.04;95103.50;5014757;28;20313;-74
2023/03/24 08:13:41;;;;;;;23.20;18.25;;;;;;;41.41;14.32;95100.16;5014749;28;20239;-74
2023/03/24 08:16:09;;;;;;;26.60;19.33;;;;;;;41.35;14.39;95094.97;5013055;28;20212;-75
2023/03/24 08:18:35;;;;;;;20.30;18.30;;;;;;;41.36;14.19;95108.06;5013791;28;20212;-74
2023/03/24 08:21:02;;;;;;;25.70;18.63;;;;;;;41.42;14.16;95095.63;5014148;28;20224;-73
2023/03/24 08:23:32;;;;;;;20.98;18.40;;;;;;;41.93;14.05;95096.41;5012714;28;20232;-74
2023/03/24 08:26:00;;;;;;;19.80;16.98;;;;;;;41.88;13.95;95088.34;5014234;28;20208;-74
2023/03/24 08:28:28;;;;;;;18.35;16.50;;;;;;;41.31;14.54;95094.66;5014278;28;20297;-74
2023/03/24 08:30:54;;;;;;;21.30;16.02;;;;;;;41.89;14.23;95089.94;5011609;28;20473;-77
2023/03/24 08:33:21;;;;;;;19.67;16.95;;;;;;;41.08;13.93;95076.91;5014332;28;20240;-74
2023/03/24 08:35:48;;;;;;;18.58;16.75;;;;;;;41.15;13.57;95089.28;5014507;28;20203;-74
2023/03/24 08:38:15;;;;;;;20.50;16.85;;;;;;;40.53;14.13;95087.34;5013510;28;20333;-74
2023/03/24 08:40:43;;;;;;;18.05;16.25;;;;;;;39.78;15.04;95092.63;5011267;28;20705;-74
2023/03/24 08:43:14;;;;;;;17.85;16.02;;;;;;;38.52;15.49;95079.53;5013922;28;20878;-74
2023/03/24 08:45:43;;;;;;;18.90;14.43;;;;;;;37.95;15.85;95079.75;5012106;28;20341;-74
2023/03/24 08:48:09;;;;;;;20.55;15.10;;;;;;;37.43;16.35;95078.41;5012343;28;21201;-74
2023/03/24 08:50:38;;;;;;;21.77;15.02;;;;;;;36.42;17.20;95084.47;5010917;28;20293;-73
2023/03/24 08:53:06;;;;;;;19.83;14.55;;;;;;;35.91;17.88;95059.81;5011840;28;20298;-76
2023/03/24 08:55:33;;;;;;;22.15;14.68;;;;;;;35.95;18.44;95066.31;5010191;28;20240;-75
2023/03/24 08:58:00;;;;;;;24.73;15.07;;;;;;;35.56;18.30;95057.44;5013739;28;20297;-75
2023/03/24 09:00:27;;;;;;;18.48;15.45;;;;;;;35.08;17.94;95054.16;5010173;28;20207;-74
2023/03/24 09:02:57;;;;;;;20.67;16.52;;;;;;;33.41;19.66;95053.63;5011453;28;20370;-77
2023/03/24 09:05:25;;;;;;;21.60;15.98;;;;;;;33.05;20.22;95051.09;5010205;28;20250;-75
2023/03/24 09:07:52;;;;;;;27.00;15.73;;;;;;;32.84;20.02;95051.13;5012561;28;20208;-75
2023/03/24 09:10:21;;;;;;;23.83;17.13;;;;;;;31.56;21.10;95050.72;5010501;28;20200;-75
2023/03/24 09:12:48;;;;;;;23.27;15.63;;;;;;;29.60;22.90;95042.41;5011873;28;20276;-73
2023/03/24 09:15:15;;;;;;;23.05;15.40;;;;;;;28.02;24.69;95046.19;5009529;28;20261;-76
2023/03/24 09:17:41;;;;;;;24.75;16.83;;;;;;;26.22;27.36;95045.03;5010369;28;20963;-74
2023/03/24 09:20:12;;;;;;;20.17;16.55;;;;;;;24.70;29.62;95034.81;5009589;28;20266;-75
2023/03/24 09:22:39;;;;;;;30.75;16.88;;;;;;;23.80;30.81;95041.06;5010048;28;20713;-73
2023/03/24 09:25:08;;;;;;;23.73;15.88;;;;;;;22.58;33.34;95046.06;5010821;28;20217;-74
2023/03/24 09:27:35;;;;;;;25.15;17.33;;;;;;;22.87;33.31;95036.75;5010936;28;20704;-74
2023/03/24 09:30:01;;;;;;;19.58;16.13;;;;;;;23.10;33.86;95028.84;5009772;28;20235;-76
2023/03/24 09:32:28;;;;;;;24.02;15.43;;;;;;;22.54;34.13;95031.69;5010099;28;20254;-74
2023/03/24 09:34:55;;;;;;;26.02;16.50;;;;;;;22.26;34.43;95033.13;5011375;28;20211;-73
2023/03/24 09:37:23;;;;;;;17.23;15.43;;;;;;;22.04;35.38;95023.63;5010519;28;20571;-77
2023/03/24 09:39:49;;;;;;;29.45;17.35;;;;;;;21.30;36.33;95025.91;5009829;28;20299;-79
2023/03/24 09:42:22;;;;;;;22.92;15.82;;;;;;;20.90;36.79;95020.34;5009153;28;20664;-76
2023/03/24 09:44:55;;;;;;;27.02;16.08;;;;;;;20.53;37.51;95011.09;5009628;28;20207;-77
2023/03/24 09:47:29;;;;;;;23.98;15.98;;;;;;;20.33;38.01;95018.47;5009795;28;20208;-76
2023/03/24 09:50:00;;;;;;;23.95;17.23;;;;;;;20.35;38.68;95016.63;5010238;28;20204;-77
2023/03/24 09:52:33;;;;;;;30.50;15.95;;;;;;;20.48;39.40;95013.19;5009714;28;20321;-75
2023/03/24 09:55:02;;;;;;;23.45;15.55;;;;;;;20.76;38.62;95002.47;5011081;28;20207;-74
2023/03/24 09:57:33;;;;;;;20.60;15.20;;;;;;;20.60;38.31;94992.44;5010688;28;20258;-76
2023/03/24 09:59:59;;;;;;;23.13;14.35;;;;;;;20.63;38.41;95001.72;5009277;28;20215;-73
2023/03/24 10:02:29;;;;;;;18.98;14.45;;;;;;;20.69;37.55;94996.94;5009922;28;20714;-75
2023/03/24 10:04:56;;;;;;;18.92;15.25;;;;;;;20.75;37.04;94995.66;5008598;28;20721;-76
2023/03/24 10:07:27;;;;;;;18.10;13.82;;;;;;;20.84;37.14;95000.13;5009873;28;20678;-75
2023/03/24 10:09:58;;;;;;;19.90;13.95;;;;;;;20.91;38.31;94996.16;5009682;28;20208;-75
2023/03/24 10:12:35;;;;;;;17.17;15.27;;;;;;;20.80;38.09;94990.94;5009151;28;20231;-75
2023/03/24 10:15:13;;;;;;;22.20;13.82;;;;;;;20.72;38.44;94980.38;5008919;28;20711;-75
2023/03/24 10:17:50;;;;;;;26.20;16.40;;;;;;;20.56;38.30;94985.84;5007701;28;20332;-76
2023/03/24 10:20:28;;;;;;;18.17;13.73;;;;;;;20.02;37.77;94982.94;5007810;28;20235;-73
2023/03/24 10:23:01;;;;;;;17.02;12.88;;;;;;;19.83;38.39;94987.75;5008366;28;20231;-76
2023/03/24 10:25:41;;;;;;;16.45;12.48;;;;;;;19.87;38.52;94981.44;5010249;28;20212;-76
2023/03/24 10:28:16;;;;;;;19.27;13.68;;;;;;;19.91;38.94;94982.88;5007763;28;20231;-74
2023/03/24 10:30:44;;;;;;;17.70;12.13;;;;;;;19.97;38.34;94988.44;5008450;28;20889;-76
2023/03/24 10:33:12;;;;;;;20.25;12.95;;;;;;;20.11;38.43;94977.09;5010211;28;20223;-76
2023/03/24 10:35:44;;;;;;;10.65;9.65;;;;;;;20.28;36.58;94975.91;5008498;28;20232;-76
2023/03/24 10:38:17;;;;;;;9.25;8.35;;;;;;;20.36;35.87;94969.22;5007558;28;20208;-82
2023/03/24 10:40:46;;;;;;;12.05;9.52;;;;;;;20.58;36.20;94963.31;5009203;28;20208;-79
2023/03/24 10:43:14;;;;;;;12.27;10.20;;;;;;;20.74;37.18;94969.94;5009639;28;20210;-78
2023/03/24 10:45:43;;;;;;;13.65;9.85;;;;;;;20.80;36.96;94962.53;5009309;28;20292;-78
2023/03/24 10:48:13;;;;;;;11.57;8.57;;;;;;;20.86;36.33;94956.91;5010068;28;20226;-79
2023/03/24 10:50:43;;;;;;;17.38;10.18;;;;;;;20.94;37.16;94954.59;5007582;28;20701;-77
2023/03/24 10:53:17;;;;;;;16.80;11.05;;;;;;;20.85;36.75;94942.34;5011858;28;20293;-76
2023/03/24 10:55:46;;;;;;;14.30;11.52;;;;;;;20.84;36.97;94963.97;5009400;28;20529;-76
2023/03/24 10:58:20;;;;;;;13.48;10.80;;;;;;;20.84;36.83;94953.63;5009170;28;20243;-75
2023/03/24 11:00:48;;;;;;;13.88;11.13;;;;;;;20.77;37.04;94957.63;5012048;28;20207;-77
2023/03/24 11:03:17;;;;;;;11.82;10.20;;;;;;;20.77;37.13;94952.47;5013005;28;20312;-76
2023/03/24 11:05:45;;;;;;;11.45;10.32;;;;;;;20.56;37.07;94946.31;5013307;28;20211;-77
2023/03/24 11:08:27;;;;;;;19.73;9.73;;;;;;;20.48;36.36;94951.22;5012870;28;20216;-77
2023/03/24 11:10:56;;;;;;;8.05;6.63;;;;;;;20.17;35.30;94943.13;5012305;28;20266;-76
2023/03/24 11:13:29;;;;;;;7.32;6.72;;;;;;;20.29;35.18;94942.22;5012269;28;20346;-76
2023/03/24 11:16:07;;;;;;;12.25;6.30;;;;;;;20.51;34.70;94940.69;5012772;28;20282;-77
2023/03/24 11:18:33;;;;;;;12.52;5.50;;;;;;;20.68;34.14;94928.16;5013270;28;20218;-77
2023/03/24 11:21:03;;;;;;;8.98;7.22;;;;;;;20.66;34.49;94924.03;5012775;28;20231;-80
2023/03/24 11:23:32;;;;;;;14.10;6.10;;;;;;;20.68;33.59;94919.56;5012776;28;20200;-77
2023/03/24 11:26:08;;;;;;;7.30;5.95;;;;;;;20.67;33.89;94915.34;5012828;28;20238;-76
2023/03/24 11:28:39;;;;;;;5.78;5.05;;;;;;;20.79;33.82;94923.94;5013487;28;20223;-77
2023/03/24 11:31:08;;;;;;;5.15;4.75;;;;;;;20.80;32.82;94910.88;5012837;28;20689;-80
2023/03/24 11:33:44;;;;;;;4.70;4.32;;;;;;;20.59;32.35;94902.19;5012712;28;20251;-77
2023/03/24 11:36:41;;;;;;;7.25;5.97;;;;;;;20.51;32.83;94904.53;5012445;28;20227;-76